sensor_id;sensor_type;location;lat;lon;timestamp;pressure;altitude;pressure_sealevel;temperature;humidity
8286;BME280;4181;43.416;24.598;2023-02-22T00:00:38;99883.31;;;14.36;100.00
8286;BME280;4181;43.416;24.598;2023-02-22T00:03:31;99900.91;;;14.30;100.00
8286;BME280;4181;43.416;24.598;2023-02-22T00:05:58;99897.56;;;14.38;100.00
8286;BME280;4181;43.416;24.598;2023-02-22T00:08:28;99894.81;;;14.43;100.00
8286;BME280;4181;43.416;24.598;2023-02-22T00:11:03;99901.13;;;14.39;100.00
8286;BME280;4181;43.416;24.598;2023-02-22T00:13:29;99907.16;;;14.41;100.00
8286;BME280;4181;43.416;24.598;2023-02-22T00:15:56;99884.69;;;14.24;100.00
8286;BME280;4181;43.416;24.598;2023-02-22T00:18:23;99883.69;;;14.10;100.00
8286;BME280;4181;43.416;24.598;2023-02-22T00:20:49;99902.00;;;14.19;100.00
8286;BME280;4181;43.416;24.598;2023-02-22T00:23:17;99912.41;;;14.22;100.00
8286;BME280;4181;43.416;24.598;2023-02-22T00:25:45;99907.22;;;14.21;100.00
8286;BME280;4181;43.416;24.598;2023-02-22T00:28:11;99923.19;;;14.14;100.00
8286;BME280;4181;43.416;24.598;2023-02-22T00:30:37;99934.69;;;14.11;100.00
8286;BME280;4181;43.416;24.598;2023-02-22T00:33:02;99925.09;;;14.08;100.00
8286;BME280;4181;43.416;24.598;2023-02-22T00:35:30;99923.72;;;14.11;100.00
8286;BME280;4181;43.416;24.598;2023-02-22T00:37:58;99926.97;;;14.18;100.00
8286;BME280;4181;43.416;24.598;2023-02-22T00:40:26;99929.47;;;14.14;100.00
8286;BME280;4181;43.416;24.598;2023-02-22T00:42:55;99918.25;;;14.06;100.00
8286;BME280;4181;43.416;24.598;2023-02-22T00:45:23;99928.69;;;14.09;100.00
8286;BME280;4181;43.416;24.598;2023-02-22T00:47:49;99920.19;;;14.05;100.00
8286;BME280;4181;43.416;24.598;2023-02-22T00:50:16;99906.75;;;14.04;100.00
8286;BME280;4181;43.416;24.598;2023-02-22T00:52:42;99914.41;;;14.12;100.00
8286;BME280;4181;43.416;24.598;2023-02-22T00:55:09;99891.41;;;13.92;100.00
8286;BME280;4181;43.416;24.598;2023-02-22T00:57:35;99896.88;;;13.97;100.00
8286;BME280;4181;43.416;24.598;2023-02-22T01:00:03;99919.38;;;13.94;100.00
8286;BME280;4181;43.416;24.598;2023-02-22T01:02:40;99902.63;;;14.01;100.00
8286;BME280;4181;43.416;24.598;2023-02-22T01:05:09;99880.19;;;13.84;100.00
8286;BME280;4181;43.416;24.598;2023-02-22T01:07:37;99896.88;;;13.97;100.00
8286;BME280;4181;43.416;24.598;2023-02-22T01:10:04;99904.56;;;13.95;100.00
8286;BME280;4181;43.416;24.598;2023-02-22T01:12:29;99907.03;;;13.92;100.00
8286;BME280;4181;43.416;24.598;2023-02-22T01:14:55;99903.75;;;13.95;100.00
8286;BME280;4181;43.416;24.598;2023-02-22T01:17:24;99906.75;;;14.04;100.00
8286;BME280;4181;43.416;24.598;2023-02-22T01:19:53;99904.53;;;14.00;100.00
8286;BME280;4181;43.416;24.598;2023-02-22T01:22:20;99913.06;;;13.89;100.00
8286;BME280;4181;43.416;24.598;2023-02-22T01:24:49;99913.34;;;13.87;100.00
8286;BME280;4181;43.416;24.598;2023-02-22T01:27:16;99919.97;;;13.76;100.00
8286;BME280;4181;43.416;24.598;2023-02-22T01:29:42;99906.84;;;13.58;100.00
8286;BME280;4181;43.416;24.598;2023-02-22T01:32:07;99915.31;;;13.57;100.00
8286;BME280;4181;43.416;24.598;2023-02-22T01:34:33;99911.22;;;13.59;100.00
8286;BME280;4181;43.416;24.598;2023-02-22T01:36:59;99912.34;;;13.53;100.00
8286;BME280;4181;43.416;24.598;2023-02-22T01:39:26;99902.44;;;13.57;100.00
8286;BME280;4181;43.416;24.598;2023-02-22T01:41:52;99891.19;;;13.64;100.00
8286;BME280;4181;43.416;24.598;2023-02-22T01:44:32;99870.69;;;13.46;100.00
8286;BME280;4181;43.416;24.598;2023-02-22T01:47:00;99893.13;;;13.68;100.00
8286;BME280;4181;43.416;24.598;2023-02-22T01:49:31;99881.88;;;13.65;100.00
8286;BME280;4181;43.416;24.598;2023-02-22T01:52:01;99881.34;;;13.63;100.00
8286;BME280;4181;43.416;24.598;2023-02-22T01:54:31;99885.41;;;13.70;100.00
8286;BME280;4181;43.416;24.598;2023-02-22T01:59:37;99883.25;;;13.57;100.00
8286;BME280;4181;43.416;24.598;2023-02-22T02:02:04;99896.69;;;13.54;100.00
8286;BME280;4181;43.416;24.598;2023-02-22T02:04:31;99887.69;;;13.38;100.00
8286;BME280;4181;43.416;24.598;2023-02-22T02:07:01;99864.97;;;13.13;100.00
8286;BME280;4181;43.416;24.598;2023-02-22T02:12:07;99878.38;;;13.34;100.00
8286;BME280;4181;43.416;24.598;2023-02-22T02:14:34;99897.81;;;13.38;100.00
8286;BME280;4181;43.416;24.598;2023-02-22T02:17:05;99900.28;;;13.34;100.00
8286;BME280;4181;43.416;24.598;2023-02-22T02:33:42;99887.69;;;13.28;100.00
8286;BME280;4181;43.416;24.598;2023-02-22T02:36:42;99884.13;;;13.33;100.00
8286;BME280;4181;43.416;24.598;2023-02-22T02:41:46;99877.03;;;13.22;100.00
8286;BME280;4181;43.416;24.598;2023-02-22T02:44:26;99892.91;;;13.20;100.00
8286;BME280;4181;43.416;24.598;2023-02-22T02:47:01;99897.81;;;13.28;100.00
8286;BME280;4181;43.416;24.598;2023-02-22T02:49:36;99890.44;;;13.13;100.00
8286;BME280;4181;43.416;24.598;2023-02-22T02:52:04;99900.28;;;13.24;100.00
8286;BME280;4181;43.416;24.598;2023-02-22T02:54:31;99895.91;;;13.28;100.00
8286;BME280;4181;43.416;24.598;2023-02-22T02:56:58;99894.81;;;13.34;100.00
8286;BME280;4181;43.416;24.598;2023-02-22T03:08:00;99907.41;;;13.25;100.00
8286;BME280;4181;43.416;24.598;2023-02-22T03:13:18;99892.34;;;13.33;100.00
8286;BME280;4181;43.416;24.598;2023-02-22T03:16:00;99886.59;;;13.39;100.00
8286;BME280;4181;43.416;24.598;2023-02-22T03:18:28;99900.56;;;13.43;100.00
8286;BME280;4181;43.416;24.598;2023-02-22T03:23:47;99899.72;;;13.32;100.00
8286;BME280;4181;43.416;24.598;2023-02-22T03:26:20;99897.28;;;13.36;100.00
8286;BME280;4181;43.416;24.598;2023-02-22T03:28:52;99903.84;;;13.30;100.00
8286;BME280;4181;43.416;24.598;2023-02-22T03:31:27;99903.31;;;13.23;100.00
8286;BME280;4181;43.416;24.598;2023-02-22T03:33:58;99901.66;;;13.12;100.00
8286;BME280;4181;43.416;24.598;2023-02-22T03:36:30;99921.03;;;12.95;100.00
8286;BME280;4181;43.416;24.598;2023-02-22T03:38:59;99919.41;;;12.99;100.00
8286;BME280;4181;43.416;24.598;2023-02-22T03:41:29;99901.88;;;13.00;100.00
8286;BME280;4181;43.416;24.598;2023-02-22T03:44:00;99922.47;;;13.03;100.00
8286;BME280;4181;43.416;24.598;2023-02-22T03:46:29;99920.78;;;12.92;100.00
8286;BME280;4181;43.416;24.598;2023-02-22T03:49:11;99920.53;;;12.98;100.00
8286;BME280;4181;43.416;24.598;2023-02-22T03:51:39;99917.22;;;12.91;100.00
8286;BME280;4181;43.416;24.598;2023-02-22T03:54:05;99928.72;;;12.93;100.00
8286;BME280;4181;43.416;24.598;2023-02-22T03:56:39;99909.00;;;12.86;100.00
8286;BME280;4181;43.416;24.598;2023-02-22T03:59:12;99903.22;;;12.77;100.00
8286;BME280;4181;43.416;24.598;2023-02-22T04:01:37;99908.44;;;12.84;100.00
8286;BME280;4181;43.416;24.598;2023-02-22T04:04:03;99925.44;;;12.96;100.00
8286;BME280;4181;43.416;24.598;2023-02-22T04:06:29;99901.34;;;12.83;100.00
8286;BME280;4181;43.416;24.598;2023-02-22T04:08:55;99916.94;;;12.88;100.00
8286;BME280;4181;43.416;24.598;2023-02-22T04:11:20;99921.59;;;12.92;100.00
8286;BME280;4181;43.416;24.598;2023-02-22T04:13:46;99922.44;;;12.93;100.00
8286;BME280;4181;43.416;24.598;2023-02-22T04:16:11;99923.25;;;12.93;100.00
8286;BME280;4181;43.416;24.598;2023-02-22T04:18:37;99920.25;;;12.95;100.00
8286;BME280;4181;43.416;24.598;2023-02-22T04:21:03;99914.47;;;12.91;100.00
8286;BME280;4181;43.416;24.598;2023-02-22T04:23:28;99913.94;;;12.89;100.00
8286;BME280;4181;43.416;24.598;2023-02-22T04:25:54;99931.47;;;12.98;100.00
8286;BME280;4181;43.416;24.598;2023-02-22T04:28:19;99931.44;;;12.83;100.00
8286;BME280;4181;43.416;24.598;2023-02-22T04:30:45;99908.94;;;12.61;100.00
8286;BME280;4181;43.416;24.598;2023-02-22T04:33:11;99938.50;;;12.59;100.00
8286;BME280;4181;43.416;24.598;2023-02-22T04:35:37;99953.03;;;12.64;100.00
8286;BME280;4181;43.416;24.598;2023-02-22T04:38:03;99952.16;;;12.54;100.00
8286;BME280;4181;43.416;24.598;2023-02-22T04:40:29;99953.97;;;12.28;100.00
8286;BME280;4181;43.416;24.598;2023-02-22T04:42:55;99947.16;;;12.31;100.00
8286;BME280;4181;43.416;24.598;2023-02-22T04:45:20;99960.88;;;12.41;100.00
8286;BME280;4181;43.416;24.598;2023-02-22T04:47:46;99944.06;;;12.17;100.00
8286;BME280;4181;43.416;24.598;2023-02-22T04:50:12;99967.03;;;12.11;100.00
8286;BME280;4181;43.416;24.598;2023-02-22T04:52:38;99966.13;;;12.01;100.00
8286;BME280;4181;43.416;24.598;2023-02-22T04:55:04;99969.91;;;11.90;100.00
8286;BME280;4181;43.416;24.598;2023-02-22T04:57:30;99949.59;;;11.81;100.00
8286;BME280;4181;43.416;24.598;2023-02-22T04:59:55;99960.44;;;11.66;100.00
8286;BME280;4181;43.416;24.598;2023-02-22T05:02:21;99943.41;;;11.59;100.00
8286;BME280;4181;43.416;24.598;2023-02-22T05:04:46;99964.16;;;11.55;100.00
8286;BME280;4181;43.416;24.598;2023-02-22T05:07:12;99984.97;;;11.61;100.00
8286;BME280;4181;43.416;24.598;2023-02-22T05:09:37;99962.97;;;11.45;100.00
8286;BME280;4181;43.416;24.598;2023-02-22T05:12:03;99989.09;;;11.63;100.00
8286;BME280;4181;43.416;24.598;2023-02-22T05:14:29;99989.41;;;11.67;100.00
8286;BME280;4181;43.416;24.598;2023-02-22T05:16:55;99981.22;;;11.72;100.00
8286;BME280;4181;43.416;24.598;2023-02-22T05:19:22;99980.50;;;11.81;100.00
8286;BME280;4181;43.416;24.598;2023-02-22T05:21:47;99967.06;;;11.75;100.00
8286;BME280;4181;43.416;24.598;2023-02-22T05:24:13;99979.75;;;11.91;100.00
8286;BME280;4181;43.416;24.598;2023-02-22T05:26:38;99983.56;;;11.90;100.00
8286;BME280;4181;43.416;24.598;2023-02-22T05:29:05;99979.88;;;12.11;100.00
8286;BME280;4181;43.416;24.598;2023-02-22T05:31:31;99987.06;;;12.27;100.00
8286;BME280;4181;43.416;24.598;2023-02-22T05:33:56;99993.22;;;12.59;100.00
8286;BME280;4181;43.416;24.598;2023-02-22T05:36:23;99991.09;;;12.71;100.00
8286;BME280;4181;43.416;24.598;2023-02-22T05:38:48;99988.13;;;12.88;100.00
8286;BME280;4181;43.416;24.598;2023-02-22T05:41:14;99983.50;;;12.98;100.00
8286;BME280;4181;43.416;24.598;2023-02-22T05:43:40;99982.19;;;13.11;100.00
8286;BME280;4181;43.416;24.598;2023-02-22T05:46:06;99983.03;;;13.26;100.00
8286;BME280;4181;43.416;24.598;2023-02-22T05:48:32;99984.69;;;13.37;100.00
8286;BME280;4181;43.416;24.598;2023-02-22T05:50:58;99978.13;;;13.58;100.00
8286;BME280;4181;43.416;24.598;2023-02-22T05:53:23;99976.13;;;13.99;100.00
8286;BME280;4181;43.416;24.598;2023-02-22T05:55:50;99963.72;;;14.37;100.00
8286;BME280;4181;43.416;24.598;2023-02-22T05:58:15;99973.25;;;14.59;100.00
8286;BME280;4181;43.416;24.598;2023-02-22T06:00:41;99972.66;;;14.67;100.00
8286;BME280;4181;43.416;24.598;2023-02-22T06:03:08;99965.44;;;14.81;100.00
8286;BME280;4181;43.416;24.598;2023-02-22T06:05:34;99969.25;;;15.29;100.00
8286;BME280;4181;43.416;24.598;2023-02-22T06:08:00;99968.91;;;15.41;100.00
8286;BME280;4181;43.416;24.598;2023-02-22T06:10:26;99972.53;;;15.70;100.00
8286;BME280;4181;43.416;24.598;2023-02-22T06:12:52;99966.22;;;15.98;100.00
8286;BME280;4181;43.416;24.598;2023-02-22T06:15:20;99964.44;;;16.35;100.00
8286;BME280;4181;43.416;24.598;2023-02-22T06:17:47;99958.84;;;16.64;100.00
8286;BME280;4181;43.416;24.598;2023-02-22T06:20:15;99961.44;;;16.98;100.00
8286;BME280;4181;43.416;24.598;2023-02-22T06:22:41;99949.72;;;17.24;100.00
8286;BME280;4181;43.416;24.598;2023-02-22T06:25:07;99942.81;;;17.45;100.00
8286;BME280;4181;43.416;24.598;2023-02-22T06:27:33;99939.00;;;17.74;100.00
8286;BME280;4181;43.416;24.598;2023-02-22T06:30:00;99933.09;;;17.80;100.00
8286;BME280;4181;43.416;24.598;2023-02-22T06:32:26;99923.50;;;17.91;100.00
8286;BME280;4181;43.416;24.598;2023-02-22T06:34:51;99939.38;;;18.13;100.00
8286;BME280;4181;43.416;24.598;2023-02-22T06:37:16;99938.78;;;18.43;100.00
8286;BME280;4181;43.416;24.598;2023-02-22T06:39:42;99927.44;;;18.44;100.00
8286;BME280;4181;43.416;24.598;2023-02-22T06:42:07;99925.28;;;18.55;100.00
8286;BME280;4181;43.416;24.598;2023-02-22T06:44:33;99939.38;;;18.80;100.00
8286;BME280;4181;43.416;24.598;2023-02-22T06:46:58;99938.34;;;18.76;100.00
8286;BME280;4181;43.416;24.598;2023-02-22T06:49:25;99943.16;;;18.84;100.00
8286;BME280;4181;43.416;24.598;2023-02-22T06:51:52;99939.03;;;18.96;100.00
8286;BME280;4181;43.416;24.598;2023-02-22T06:54:17;99936.56;;;19.08;100.00
8286;BME280;4181;43.416;24.598;2023-02-22T06:56:43;99927.28;;;19.26;100.00
8286;BME280;4181;43.416;24.598;2023-02-22T06:59:08;99901.03;;;19.23;100.00
8286;BME280;4181;43.416;24.598;2023-02-22T07:01:34;99914.56;;;19.25;100.00
8286;BME280;4181;43.416;24.598;2023-02-22T07:04:01;99909.34;;;19.23;100.00
8286;BME280;4181;43.416;24.598;2023-02-22T07:06:26;99918.44;;;19.59;100.00
8286;BME280;4181;43.416;24.598;2023-02-22T07:08:52;99910.28;;;19.63;100.00
8286;BME280;4181;43.416;24.598;2023-02-22T07:11:17;99917.66;;;19.89;100.00
8286;BME280;4181;43.416;24.598;2023-02-22T07:13:42;99913.41;;;19.92;100.00
8286;BME280;4181;43.416;24.598;2023-02-22T07:16:08;99931.75;;;20.10;100.00
8286;BME280;4181;43.416;24.598;2023-02-22T07:18:33;99932.97;;;20.18;100.00
8286;BME280;4181;43.416;24.598;2023-02-22T07:20:59;99922.69;;;20.18;100.00
8286;BME280;4181;43.416;24.598;2023-02-22T07:23:24;99929.03;;;20.19;100.00
8286;BME280;4181;43.416;24.598;2023-02-22T07:25:51;99935.63;;;20.31;100.00
8286;BME280;4181;43.416;24.598;2023-02-22T07:28:16;99911.28;;;20.20;100.00
8286;BME280;4181;43.416;24.598;2023-02-22T07:30:42;99918.91;;;20.53;100.00
8286;BME280;4181;43.416;24.598;2023-02-22T07:33:09;99928.34;;;20.52;100.00
8286;BME280;4181;43.416;24.598;2023-02-22T07:35:46;99922.22;;;20.72;100.00
8286;BME280;4181;43.416;24.598;2023-02-22T07:38:14;99915.06;;;20.88;100.00
8286;BME280;4181;43.416;24.598;2023-02-22T07:40:40;99920.66;;;21.05;100.00
8286;BME280;4181;43.416;24.598;2023-02-22T07:43:17;99915.94;;;21.14;100.00
8286;BME280;4181;43.416;24.598;2023-02-22T07:45:43;99903.69;;;21.24;100.00
8286;BME280;4181;43.416;24.598;2023-02-22T07:48:10;99901.06;;;21.45;100.00
8286;BME280;4181;43.416;24.598;2023-02-22T07:50:37;99895.03;;;21.43;100.00
8286;BME280;4181;43.416;24.598;2023-02-22T07:53:04;99914.44;;;21.51;100.00
8286;BME280;4181;43.416;24.598;2023-02-22T07:55:31;99908.06;;;21.51;100.00
8286;BME280;4181;43.416;24.598;2023-02-22T07:58:00;99887.66;;;21.47;100.00
8286;BME280;4181;43.416;24.598;2023-02-22T08:00:37;99916.22;;;21.38;100.00
8286;BME280;4181;43.416;24.598;2023-02-22T08:03:05;99907.09;;;21.47;100.00
8286;BME280;4181;43.416;24.598;2023-02-22T08:05:32;99910.66;;;21.64;100.00
8286;BME280;4181;43.416;24.598;2023-02-22T08:07:58;99905.44;;;21.71;100.00
8286;BME280;4181;43.416;24.598;2023-02-22T08:10:24;99906.84;;;22.03;100.00
8286;BME280;4181;43.416;24.598;2023-02-22T08:12:51;99907.47;;;22.00;100.00
8286;BME280;4181;43.416;24.598;2023-02-22T08:15:20;99897.47;;;22.16;100.00
8286;BME280;4181;43.416;24.598;2023-02-22T08:17:46;99896.47;;;22.49;100.00
8286;BME280;4181;43.416;24.598;2023-02-22T08:20:12;99908.19;;;22.64;100.00
8286;BME280;4181;43.416;24.598;2023-02-22T08:22:38;99869.09;;;22.60;100.00
8286;BME280;4181;43.416;24.598;2023-02-22T08:25:04;99899.25;;;22.58;100.00
8286;BME280;4181;43.416;24.598;2023-02-22T08:27:30;99880.09;;;22.56;100.00
8286;BME280;4181;43.416;24.598;2023-02-22T08:29:56;99893.78;;;22.91;100.00
8286;BME280;4181;43.416;24.598;2023-02-22T08:32:22;99887.53;;;23.14;100.00
8286;BME280;4181;43.416;24.598;2023-02-22T08:34:48;99865.81;;;23.28;100.00
8286;BME280;4181;43.416;24.598;2023-02-22T08:37:15;99877.06;;;23.52;100.00
8286;BME280;4181;43.416;24.598;2023-02-22T08:39:41;99867.03;;;23.39;100.00
8286;BME280;4181;43.416;24.598;2023-02-22T08:42:07;99890.00;;;23.36;100.00
8286;BME280;4181;43.416;24.598;2023-02-22T08:44:36;99883.94;;;23.34;100.00
8286;BME280;4181;43.416;24.598;2023-02-22T08:47:02;99883.00;;;23.30;100.00
8286;BME280;4181;43.416;24.598;2023-02-22T08:49:27;99878.88;;;23.36;100.00
8286;BME280;4181;43.416;24.598;2023-02-22T08:51:53;99871.13;;;23.54;100.00
8286;BME280;4181;43.416;24.598;2023-02-22T08:54:18;99875.63;;;23.79;100.00
8286;BME280;4181;43.416;24.598;2023-02-22T08:56:43;99865.28;;;23.79;100.00
8286;BME280;4181;43.416;24.598;2023-02-22T08:59:09;99850.88;;;23.77;100.00
8286;BME280;4181;43.416;24.598;2023-02-22T09:01:35;99867.88;;;23.85;100.00
8286;BME280;4181;43.416;24.598;2023-02-22T09:04:00;99861.56;;;23.75;100.00
8286;BME280;4181;43.416;24.598;2023-02-22T09:06:27;99859.84;;;23.83;100.00
8286;BME280;4181;43.416;24.598;2023-02-22T09:08:53;99867.06;;;23.96;100.00
8286;BME280;4181;43.416;24.598;2023-02-22T09:11:18;99857.22;;;23.99;100.00
8286;BME280;4181;43.416;24.598;2023-02-22T09:13:44;99867.91;;;24.09;100.00
8286;BME280;4181;43.416;24.598;2023-02-22T09:16:09;99855.84;;;24.05;100.00
8286;BME280;4181;43.416;24.598;2023-02-22T09:18:35;99875.34;;;24.05;100.00
8286;BME280;4181;43.416;24.598;2023-02-22T09:21:01;99870.19;;;23.95;100.00
8286;BME280;4181;43.416;24.598;2023-02-22T09:23:27;99869.84;;;23.96;100.00
8286;BME280;4181;43.416;24.598;2023-02-22T09:25:52;99856.72;;;23.85;100.00
8286;BME280;4181;43.416;24.598;2023-02-22T09:28:18;99851.41;;;23.92;100.00
8286;BME280;4181;43.416;24.598;2023-02-22T09:30:43;99861.25;;;23.89;100.00
8286;BME280;4181;43.416;24.598;2023-02-22T09:33:12;99850.03;;;24.10;100.00
8286;BME280;4181;43.416;24.598;2023-02-22T09:35:38;99861.22;;;24.22;100.00
8286;BME280;4181;43.416;24.598;2023-02-22T09:38:07;99841.91;;;24.41;100.00
8286;BME280;4181;43.416;24.598;2023-02-22T09:40:36;99849.78;;;24.63;100.00
8286;BME280;4181;43.416;24.598;2023-02-22T09:46:04;99845.25;;;24.70;100.00
8286;BME280;4181;43.416;24.598;2023-02-22T09:48:49;99832.56;;;24.85;100.00
8286;BME280;4181;43.416;24.598;2023-02-22T09:51:16;99835.63;;;24.68;100.00
8286;BME280;4181;43.416;24.598;2023-02-22T09:53:47;99827.22;;;24.56;100.00
8286;BME280;4181;43.416;24.598;2023-02-22T09:56:16;99844.28;;;24.90;100.00
8286;BME280;4181;43.416;24.598;2023-02-22T09:58:47;99818.59;;;25.13;100.00
8286;BME280;4181;43.416;24.598;2023-02-22T10:06:22;99825.53;;;25.03;100.00
8286;BME280;4181;43.416;24.598;2023-02-22T10:08:50;99806.50;;;25.09;100.00
8286;BME280;4181;43.416;24.598;2023-02-22T10:19:53;99790.72;;;25.40;100.00
8286;BME280;4181;43.416;24.598;2023-02-22T10:22:56;99799.25;;;25.47;100.00
8286;BME280;4181;43.416;24.598;2023-02-22T10:25:27;99800.84;;;25.33;100.00
8286;BME280;4181;43.416;24.598;2023-02-22T10:30:34;99779.44;;;25.37;100.00
8286;BME280;4181;43.416;24.598;2023-02-22T10:35:39;99751.19;;;25.26;100.00
8286;BME280;4181;43.416;24.598;2023-02-22T10:38:13;99759.06;;;25.36;100.00
8286;BME280;4181;43.416;24.598;2023-02-22T10:40:44;99769.25;;;25.44;100.00
8286;BME280;4181;43.416;24.598;2023-02-22T10:43:12;99763.22;;;25.42;100.00
8286;BME280;4181;43.416;24.598;2023-02-22T10:45:38;99757.19;;;25.40;100.00
8286;BME280;4181;43.416;24.598;2023-02-22T10:48:10;99759.09;;;25.67;100.00
8286;BME280;4181;43.416;24.598;2023-02-22T10:50:43;99755.09;;;25.37;100.00
8286;BME280;4181;43.416;24.598;2023-02-22T10:53:10;99755.56;;;25.39;100.00
8286;BME280;4181;43.416;24.598;2023-02-22T10:58:53;99759.56;;;25.26;100.00
8286;BME280;4181;43.416;24.598;2023-02-22T11:04:12;99756.56;;;25.19;100.00
8286;BME280;4181;43.416;24.598;2023-02-22T11:06:41;99759.16;;;25.12;100.00
8286;BME280;4181;43.416;24.598;2023-02-22T11:09:28;99757.19;;;25.13;100.00
8286;BME280;4181;43.416;24.598;2023-02-22T11:12:14;99753.66;;;25.00;100.00
8286;BME280;4181;43.416;24.598;2023-02-22T11:14:40;99754.44;;;25.00;100.00
8286;BME280;4181;43.416;24.598;2023-02-22T11:17:07;99742.66;;;25.07;100.00
8286;BME280;4181;43.416;24.598;2023-02-22T11:19:35;99748.75;;;24.97;100.00
8286;BME280;4181;43.416;24.598;2023-02-22T11:24:28;99724.28;;;24.51;100.00
8286;BME280;4181;43.416;24.598;2023-02-22T11:26:59;99738.09;;;24.47;100.00
8286;BME280;4181;43.416;24.598;2023-02-22T11:29:36;99731.16;;;24.81;100.00
8286;BME280;4181;43.416;24.598;2023-02-22T11:32:14;99739.00;;;24.63;100.00
8286;BME280;4181;43.416;24.598;2023-02-22T11:34:45;99727.66;;;24.84;100.00
8286;BME280;4181;43.416;24.598;2023-02-22T11:39:40;99730.78;;;24.55;100.00
8286;BME280;4181;43.416;24.598;2023-02-22T11:42:22;99739.03;;;24.51;100.00
8286;BME280;4181;43.416;24.598;2023-02-22T11:44:48;99730.78;;;24.55;100.00
8286;BME280;4181;43.416;24.598;2023-02-22T11:47:31;99735.22;;;24.44;100.00
8286;BME280;4181;43.416;24.598;2023-02-22T11:49:56;99730.28;;;24.65;100.00
8286;BME280;4181;43.416;24.598;2023-02-22T11:52:41;99705.47;;;24.75;100.00
8286;BME280;4181;43.416;24.598;2023-02-22T11:55:21;99716.16;;;24.46;100.00
8286;BME280;4181;43.416;24.598;2023-02-22T12:03:15;99718.13;;;24.45;100.00
8286;BME280;4181;43.416;24.598;2023-02-22T12:11:12;99711.94;;;24.52;100.00
8286;BME280;4181;43.416;24.598;2023-02-22T12:19:43;99717.88;;;23.99;100.00
8286;BME280;4181;43.416;24.598;2023-02-22T12:22:26;99718.09;;;24.06;100.00
8286;BME280;4181;43.416;24.598;2023-02-22T12:25:19;99710.97;;;24.20;100.00
8286;BME280;4181;43.416;24.598;2023-02-22T12:32:55;99713.22;;;23.66;100.00
8286;BME280;4181;43.416;24.598;2023-02-22T12:35:28;99724.69;;;23.53;100.00
8286;BME280;4181;43.416;24.598;2023-02-22T12:38:03;99721.06;;;23.40;100.00
8286;BME280;4181;43.416;24.598;2023-02-22T12:40:45;99724.22;;;23.51;100.00
8286;BME280;4181;43.416;24.598;2023-02-22T12:43:21;99716.56;;;23.36;100.00
8286;BME280;4181;43.416;24.598;2023-02-22T12:56:33;99710.19;;;23.47;100.00
8286;BME280;4181;43.416;24.598;2023-02-22T12:59:20;99707.97;;;23.41;100.00
8286;BME280;4181;43.416;24.598;2023-02-22T13:01:54;99709.69;;;23.33;100.00
8286;BME280;4181;43.416;24.598;2023-02-22T13:04:21;99704.50;;;23.44;100.00
8286;BME280;4181;43.416;24.598;2023-02-22T13:09:55;99715.03;;;23.38;100.00
8286;BME280;4181;43.416;24.598;2023-02-22T13:20:46;99712.03;;;22.99;100.00
8286;BME280;4181;43.416;24.598;2023-02-22T13:23:22;99710.53;;;23.01;100.00
8286;BME280;4181;43.416;24.598;2023-02-22T13:28:38;99716.78;;;22.98;100.00
8286;BME280;4181;43.416;24.598;2023-02-22T13:31:30;99719.78;;;22.93;100.00
8286;BME280;4181;43.416;24.598;2023-02-22T13:51:07;99704.22;;;22.39;100.00
8286;BME280;4181;43.416;24.598;2023-02-22T13:56:17;99712.75;;;22.34;100.00
8286;BME280;4181;43.416;24.598;2023-02-22T13:58:58;99717.28;;;22.38;100.00
8286;BME280;4181;43.416;24.598;2023-02-22T14:01:43;99705.16;;;22.22;100.00
8286;BME280;4181;43.416;24.598;2023-02-22T14:04:19;99715.69;;;22.37;100.00
8286;BME280;4181;43.416;24.598;2023-02-22T14:06:48;99722.91;;;22.30;100.00
8286;BME280;4181;43.416;24.598;2023-02-22T14:09:55;99717.75;;;22.20;100.00
8286;BME280;4181;43.416;24.598;2023-02-22T14:17:41;99722.88;;;21.89;100.00
8286;BME280;4181;43.416;24.598;2023-02-22T14:22:45;99721.66;;;21.78;100.00
8286;BME280;4181;43.416;24.598;2023-02-22T14:25:33;99721.66;;;21.78;100.00
8286;BME280;4181;43.416;24.598;2023-02-22T14:28:00;99724.59;;;21.73;100.00
8286;BME280;4181;43.416;24.598;2023-02-22T14:30:33;99716.88;;;21.78;100.00
8286;BME280;4181;43.416;24.598;2023-02-22T14:32:59;99725.63;;;21.60;100.00
8286;BME280;4181;43.416;24.598;2023-02-22T14:35:35;99731.22;;;21.51;100.00
8286;BME280;4181;43.416;24.598;2023-02-22T14:38:04;99714.94;;;21.41;100.00
8286;BME280;4181;43.416;24.598;2023-02-22T14:40:34;99722.66;;;21.27;100.00
8286;BME280;4181;43.416;24.598;2023-02-22T14:43:13;99713.50;;;21.26;100.00
8286;BME280;4181;43.416;24.598;2023-02-22T14:45:51;99727.59;;;21.13;100.00
8286;BME280;4181;43.416;24.598;2023-02-22T14:48:26;99727.72;;;21.16;100.00
8286;BME280;4181;43.416;24.598;2023-02-22T14:50:56;99734.13;;;21.08;100.00
8286;BME280;4181;43.416;24.598;2023-02-22T14:53:35;99732.69;;;21.02;100.00
8286;BME280;4181;43.416;24.598;2023-02-22T14:56:08;99733.16;;;20.96;100.00
8286;BME280;4181;43.416;24.598;2023-02-22T14:58:42;99726.81;;;20.78;100.00
8286;BME280;4181;43.416;24.598;2023-02-22T15:01:24;99734.13;;;20.91;100.00
8286;BME280;4181;43.416;24.598;2023-02-22T15:03:50;99728.63;;;20.83;100.00
8286;BME280;4181;43.416;24.598;2023-02-22T15:06:26;99712.78;;;20.66;100.00
8286;BME280;4181;43.416;24.598;2023-02-22T15:09:26;99741.00;;;20.77;100.00
8286;BME280;4181;43.416;24.598;2023-02-22T15:12:09;99741.66;;;20.74;100.00
8286;BME280;4181;43.416;24.598;2023-02-22T15:14:38;99749.47;;;20.55;100.00
8286;BME280;4181;43.416;24.598;2023-02-22T15:17:20;99750.97;;;20.52;100.00
8286;BME280;4181;43.416;24.598;2023-02-22T15:19:49;99742.00;;;20.21;100.00
8286;BME280;4181;43.416;24.598;2023-02-22T15:22:24;99749.34;;;20.34;100.00
8286;BME280;4181;43.416;24.598;2023-02-22T15:25:03;99757.94;;;20.16;100.00
8286;BME280;4181;43.416;24.598;2023-02-22T15:27:29;99753.66;;;20.01;100.00
8286;BME280;4181;43.416;24.598;2023-02-22T15:30:06;99746.56;;;19.78;100.00
8286;BME280;4181;43.416;24.598;2023-02-22T15:32:40;99749.38;;;19.86;100.00
8286;BME280;4181;43.416;24.598;2023-02-22T15:35:20;99755.72;;;19.87;100.00